Time;durP1;ratioP1;P1;durP2;ratioP2;P2;SDS_P1;SDS_P2;PMS_P1;PMS_P2;Temp;Humidity;BMP_temperature;BMP_pressure;BME280_temperature;BME280_humidity;BME280_pressure;Samples;Min_cycle;Max_cycle;Signal;HPM_P1;HPM_P2
2022/08/23 00:01:53;;;;;;;4.80;2.10;;;21.30;60.30;;;;;;4943137;28;20519;-76
2022/08/23 00:04:26;;;;;;;2.77;2.00;;;21.30;60.00;;;;;;4966439;28;20034;-78
2022/08/23 00:06:53;;;;;;;2.35;1.70;;;21.20;60.60;;;;;;4970165;28;20053;-78
2022/08/23 00:09:22;;;;;;;2.97;1.70;;;21.20;60.00;;;;;;4942250;28;20030;-76
2022/08/23 00:11:54;;;;;;;3.88;1.80;;;21.20;60.10;;;;;;4958943;28;20035;-76
2022/08/23 00:14:25;;;;;;;3.33;2.20;;;21.10;60.80;;;;;;4966475;28;20095;-77
2022/08/23 00:16:51;;;;;;;3.10;1.93;;;21.10;60.40;;;;;;4917611;28;20031;-76
2022/08/23 00:19:18;;;;;;;3.53;1.80;;;21.10;60.20;;;;;;4957243;28;20080;-76
2022/08/23 00:21:45;;;;;;;3.15;1.90;;;21.00;60.40;;;;;;4956356;28;20064;-76
2022/08/23 00:24:12;;;;;;;2.78;1.95;;;21.00;61.30;;;;;;4961297;28;20085;-77
2022/08/23 00:26:59;;;;;;;2.40;1.73;;;21.00;60.80;;;;;;4941876;28;20332;-76
2022/08/23 00:29:51;;;;;;;3.03;1.80;;;21.00;62.60;;;;;;4961146;28;20050;-76
2022/08/23 00:32:30;;;;;;;3.50;1.90;;;21.00;62.70;;;;;;4918080;28;20496;-77
2022/08/23 00:34:57;;;;;;;2.88;1.70;;;20.90;61.80;;;;;;4960615;28;20237;-78
2022/08/23 00:37:24;;;;;;;3.15;1.70;;;20.90;60.90;;;;;;4933251;28;20550;-78
2022/08/23 00:39:50;;;;;;;3.83;1.93;;;20.90;61.10;;;;;;4946627;28;20125;-79
2022/08/23 00:48:27;;;;;;;2.63;1.88;;;20.90;62.10;;;;;;4945566;28;20030;-77
2022/08/23 00:51:04;;;;;;;3.40;1.90;;;20.90;61.50;;;;;;4933509;28;20665;-78
2022/08/23 00:53:33;;;;;;;2.97;1.90;;;20.90;62.20;;;;;;4951597;28;20289;-79
2022/08/23 00:56:02;;;;;;;2.97;1.83;;;20.80;61.80;;;;;;4939655;28;20027;-78
2022/08/23 00:58:30;;;;;;;3.45;2.10;;;20.90;61.90;;;;;;4953076;28;20023;-76
2022/08/23 01:00:58;;;;;;;2.70;1.80;;;20.80;62.00;;;;;;4967659;28;20222;-76
2022/08/23 01:03:27;;;;;;;3.17;1.90;;;20.80;62.20;;;;;;4929999;28;20027;-76
2022/08/23 01:06:11;;;;;;;3.47;2.00;;;20.80;62.10;;;;;;4942688;28;20031;-77
2022/08/23 01:08:38;;;;;;;2.60;2.10;;;20.80;63.20;;;;;;4949926;28;20030;-76
2022/08/23 01:11:32;;;;;;;3.22;1.90;;;20.70;62.10;;;;;;4957930;28;20027;-77
2022/08/23 01:14:10;;;;;;;2.85;2.00;;;20.80;63.70;;;;;;4943678;28;20103;-76
2022/08/23 01:16:45;;;;;;;3.45;2.00;;;20.80;62.80;;;;;;4961440;28;20030;-76
2022/08/23 01:19:27;;;;;;;2.53;2.00;;;20.80;63.70;;;;;;4933409;28;20066;-76
2022/08/23 01:22:03;;;;;;;3.50;2.20;;;20.70;63.10;;;;;;4959456;28;20458;-76
2022/08/23 01:24:29;;;;;;;3.53;2.00;;;20.70;63.20;;;;;;4937151;28;20125;-77
2022/08/23 01:26:55;;;;;;;2.70;1.70;;;20.70;62.50;;;;;;4962027;28;21912;-77
2022/08/23 01:29:21;;;;;;;3.77;2.00;;;20.70;62.60;;;;;;4938302;28;20034;-77
2022/08/23 01:31:46;;;;;;;3.58;2.22;;;20.70;62.80;;;;;;4934288;28;20062;-76
2022/08/23 01:34:15;;;;;;;3.93;2.27;;;20.70;63.10;;;;;;4931109;28;20035;-77
2022/08/23 01:36:42;;;;;;;3.45;2.20;;;20.60;63.30;;;;;;4949392;28;20117;-77
2022/08/23 01:39:09;;;;;;;3.85;2.28;;;20.60;63.60;;;;;;4953920;28;20333;-77
2022/08/23 01:41:37;;;;;;;3.78;2.30;;;20.60;63.50;;;;;;4946185;28;20054;-77
2022/08/23 01:44:04;;;;;;;4.00;2.30;;;20.60;63.60;;;;;;4957867;28;20035;-77
2022/08/23 01:46:30;;;;;;;3.80;2.20;;;20.50;63.80;;;;;;4937972;28;20039;-77
2022/08/23 01:48:57;;;;;;;2.60;2.05;;;20.50;63.90;;;;;;4916149;28;21149;-76
2022/08/23 01:51:23;;;;;;;2.92;2.15;;;20.50;64.00;;;;;;4942146;28;20408;-77
2022/08/23 01:53:49;;;;;;;4.82;2.28;;;20.50;64.10;;;;;;4957576;28;20486;-77
2022/08/23 01:56:19;;;;;;;3.38;2.17;;;20.50;64.10;;;;;;4966697;28;20027;-77
2022/08/23 01:58:45;;;;;;;4.23;2.30;;;20.50;64.30;;;;;;4956985;28;20299;-77
2022/08/23 02:01:11;;;;;;;5.60;2.50;;;20.50;64.20;;;;;;4940921;28;20019;-77
2022/08/23 02:03:37;;;;;;;3.38;2.17;;;20.40;64.30;;;;;;4963929;28;20031;-77
2022/08/23 02:06:04;;;;;;;2.60;2.13;;;20.40;64.40;;;;;;4948043;28;20042;-77
2022/08/23 02:11:17;;;;;;;4.22;2.47;;;20.40;64.60;;;;;;4957760;28;20173;-77
2022/08/23 02:13:45;;;;;;;4.40;2.58;;;20.30;65.00;;;;;;4945558;28;20023;-77
2022/08/23 02:16:10;;;;;;;4.38;2.30;;;20.30;65.00;;;;;;4943925;28;20078;-77
2022/08/23 02:18:36;;;;;;;4.80;2.27;;;20.30;64.90;;;;;;4963422;28;20031;-77
2022/08/23 02:21:03;;;;;;;4.18;2.40;;;20.30;65.00;;;;;;4945882;28;20284;-77
2022/08/23 02:23:29;;;;;;;5.47;2.58;;;20.30;65.10;;;;;;4964734;28;20031;-77
2022/08/23 02:25:55;;;;;;;3.92;2.40;;;20.30;65.10;;;;;;4951251;28;20230;-77
2022/08/23 02:28:22;;;;;;;3.57;2.30;;;20.20;65.10;;;;;;4982104;28;20127;-77
2022/08/23 02:30:49;;;;;;;3.90;2.45;;;20.20;65.20;;;;;;4975215;28;20968;-77
2022/08/23 02:33:16;;;;;;;3.13;2.30;;;20.20;65.20;;;;;;4964477;28;20158;-77
2022/08/23 02:35:41;;;;;;;4.57;2.58;;;20.20;65.30;;;;;;4954751;28;20635;-77
2022/08/23 02:38:10;;;;;;;4.43;2.63;;;20.10;65.30;;;;;;4968629;28;20014;-77
2022/08/23 02:40:37;;;;;;;3.90;2.30;;;20.10;65.40;;;;;;4973800;28;20033;-77
2022/08/23 02:43:05;;;;;;;3.70;2.20;;;20.10;65.40;;;;;;4986261;28;20030;-77
2022/08/23 02:45:31;;;;;;;4.88;2.55;;;20.00;65.40;;;;;;4951485;28;20022;-77
2022/08/23 02:47:57;;;;;;;3.40;2.42;;;20.00;65.60;;;;;;4957896;28;20639;-77
2022/08/23 02:50:23;;;;;;;3.50;2.40;;;20.00;65.70;;;;;;4971926;28;20394;-77
2022/08/23 02:52:49;;;;;;;5.65;2.60;;;20.00;65.70;;;;;;4960254;28;20399;-77
2022/08/23 02:55:16;;;;;;;6.63;2.58;;;19.90;65.70;;;;;;4979683;28;20578;-77
2022/08/23 02:57:41;;;;;;;4.80;2.60;;;19.90;65.80;;;;;;4974479;28;20511;-77
2022/08/23 03:00:10;;;;;;;4.53;2.77;;;19.90;65.90;;;;;;4986684;28;20045;-77
2022/08/23 03:02:37;;;;;;;3.55;2.45;;;19.80;66.30;;;;;;4959578;28;20792;-77
2022/08/23 03:05:05;;;;;;;4.53;2.50;;;19.80;66.10;;;;;;4984851;28;20426;-77
2022/08/23 03:07:30;;;;;;;3.70;2.38;;;19.80;66.20;;;;;;4949387;28;20030;-78
2022/08/23 03:09:56;;;;;;;3.60;2.43;;;19.80;66.20;;;;;;4972789;28;20133;-78
2022/08/23 03:12:23;;;;;;;3.78;2.45;;;19.70;66.10;;;;;;4974836;28;20035;-78
2022/08/23 03:14:50;;;;;;;4.25;2.50;;;19.70;66.20;;;;;;4959714;28;20018;-78
2022/08/23 03:17:17;;;;;;;3.33;2.30;;;19.60;66.20;;;;;;4980043;28;20069;-77
2022/08/23 03:19:42;;;;;;;4.22;2.45;;;19.70;66.30;;;;;;4940927;28;20018;-77
2022/08/23 03:22:08;;;;;;;3.67;2.40;;;19.60;66.30;;;;;;4964514;28;20041;-77
2022/08/23 03:24:35;;;;;;;3.80;2.45;;;19.60;66.50;;;;;;4940284;28;20031;-78
2022/08/23 03:27:02;;;;;;;4.20;2.40;;;19.50;66.50;;;;;;4976572;28;20054;-78
2022/08/23 03:29:27;;;;;;;5.40;2.70;;;19.50;66.70;;;;;;4966956;28;20023;-79
2022/08/23 03:31:53;;;;;;;3.65;2.30;;;19.50;66.70;;;;;;4957243;28;20173;-79
2022/08/23 03:34:19;;;;;;;4.70;2.60;;;19.40;66.70;;;;;;4961750;28;20051;-79
2022/08/23 03:36:45;;;;;;;3.55;2.42;;;19.40;66.80;;;;;;4957129;28;20164;-79
2022/08/23 03:39:12;;;;;;;4.93;2.60;;;19.40;66.90;;;;;;4986601;28;20030;-79
2022/08/23 03:41:37;;;;;;;3.97;2.60;;;19.40;66.90;;;;;;4956408;28;20054;-76
2022/08/23 03:44:03;;;;;;;4.20;2.30;;;19.40;67.00;;;;;;4966125;28;20526;-77
2022/08/23 03:46:30;;;;;;;3.22;2.10;;;19.40;67.00;;;;;;4949148;28;20038;-77
2022/08/23 03:48:58;;;;;;;3.65;2.45;;;19.30;67.00;;;;;;4959093;28;20045;-77
2022/08/23 03:51:26;;;;;;;4.28;2.50;;;19.30;67.20;;;;;;4984702;28;20343;-77
2022/08/23 03:53:53;;;;;;;4.53;2.67;;;19.30;67.20;;;;;;4979715;28;20022;-77
2022/08/23 03:56:31;;;;;;;4.03;2.55;;;19.20;67.10;;;;;;4966606;28;20407;-77
2022/08/23 03:58:59;;;;;;;3.40;2.28;;;19.20;68.40;;;;;;4981025;28;20256;-77
2022/08/23 04:01:25;;;;;;;4.30;2.63;;;19.20;67.30;;;;;;4967849;28;20534;-77
2022/08/23 04:03:51;;;;;;;3.87;2.30;;;19.20;67.20;;;;;;4953012;28;20023;-77
2022/08/23 04:06:17;;;;;;;4.38;2.70;;;19.20;67.30;;;;;;4971861;28;20347;-77
2022/08/23 04:08:44;;;;;;;4.45;2.22;;;19.20;67.50;;;;;;4966937;28;20077;-79
2022/08/23 04:11:11;;;;;;;2.63;2.00;;;19.10;67.50;;;;;;4923897;28;20034;-79
2022/08/23 04:13:38;;;;;;;3.70;2.50;;;19.10;67.60;;;;;;4974515;28;20023;-79
2022/08/23 04:16:05;;;;;;;3.83;2.33;;;19.10;67.60;;;;;;4956287;28;20030;-79
2022/08/23 04:18:32;;;;;;;3.20;2.30;;;19.00;67.70;;;;;;4950213;28;20137;-79
2022/08/23 04:21:01;;;;;;;4.30;2.30;;;19.00;67.70;;;;;;4959665;28;20022;-78
2022/08/23 04:23:27;;;;;;;3.53;2.27;;;19.00;68.00;;;;;;4984119;28;21012;-77
2022/08/23 04:25:56;;;;;;;4.65;2.28;;;18.90;67.70;;;;;;4943576;28;20046;-77
2022/08/23 04:28:23;;;;;;;3.53;2.20;;;18.90;68.20;;;;;;4935448;28;20051;-77
2022/08/23 04:30:49;;;;;;;4.75;2.38;;;18.90;67.90;;;;;;4967435;28;20451;-79
2022/08/23 04:33:16;;;;;;;3.70;2.40;;;18.90;67.90;;;;;;4981753;28;20026;-79
2022/08/23 04:35:43;;;;;;;3.90;2.33;;;18.90;68.00;;;;;;4957871;28;20030;-77
2022/08/23 04:38:10;;;;;;;4.20;2.42;;;18.90;68.10;;;;;;4938209;28;20073;-77
2022/08/23 04:43:20;;;;;;;3.70;2.33;;;18.80;68.10;;;;;;4956602;28;20233;-77
2022/08/23 04:45:46;;;;;;;3.90;2.77;;;18.80;68.10;;;;;;4985631;28;20057;-77
2022/08/23 04:48:12;;;;;;;4.97;2.67;;;18.80;69.00;;;;;;4938283;28;20035;-77
2022/08/23 04:50:39;;;;;;;3.40;2.78;;;18.80;68.40;;;;;;4975318;28;20050;-77
2022/08/23 04:53:06;;;;;;;4.50;2.70;;;18.80;68.70;;;;;;4975513;28;20116;-79
2022/08/23 04:55:31;;;;;;;4.32;2.55;;;18.80;68.80;;;;;;4958551;28;20030;-77
2022/08/23 04:57:57;;;;;;;4.33;2.80;;;18.80;68.80;;;;;;4959340;28;20028;-77
2022/08/23 05:00:23;;;;;;;4.40;2.85;;;18.70;68.90;;;;;;4947241;28;20144;-77
2022/08/23 05:02:49;;;;;;;5.93;2.80;;;18.80;69.10;;;;;;4951269;28;20283;-76
2022/08/23 05:05:15;;;;;;;5.00;2.95;;;18.70;69.20;;;;;;4952638;28;20328;-77
2022/08/23 05:07:41;;;;;;;4.95;2.63;;;18.80;69.40;;;;;;4968619;28;20027;-77
2022/08/23 05:10:09;;;;;;;3.90;2.70;;;18.70;69.40;;;;;;4965579;28;20031;-77
2022/08/23 05:12:35;;;;;;;5.37;2.50;;;18.70;69.50;;;;;;4962637;28;20090;-77
2022/08/23 05:15:01;;;;;;;7.32;2.83;;;18.80;69.50;;;;;;4932565;28;20210;-77
2022/08/23 05:17:27;;;;;;;4.03;2.50;;;18.80;69.50;;;;;;4980568;28;20065;-77
2022/08/23 05:19:53;;;;;;;6.28;3.00;;;18.70;69.60;;;;;;4970061;28;20033;-77
2022/08/23 05:22:18;;;;;;;3.50;2.57;;;18.80;69.70;;;;;;4986358;28;20026;-77
2022/08/23 05:24:44;;;;;;;4.10;2.40;;;18.70;69.70;;;;;;4944310;28;20034;-77
2022/08/23 05:27:10;;;;;;;4.95;2.92;;;18.80;69.90;;;;;;4980848;28;20077;-77
2022/08/23 05:29:36;;;;;;;3.45;2.65;;;18.70;69.90;;;;;;4929218;28;20032;-77
2022/08/23 05:32:02;;;;;;;4.20;2.67;;;18.80;69.90;;;;;;4952301;28;20019;-77
2022/08/23 05:34:28;;;;;;;4.37;2.63;;;18.80;70.00;;;;;;4967379;28;20038;-77
2022/08/23 05:36:54;;;;;;;5.00;2.60;;;18.80;70.00;;;;;;4966422;28;20030;-76
2022/08/23 05:39:20;;;;;;;4.20;2.50;;;18.80;70.20;;;;;;4945185;28;20070;-77
2022/08/23 05:41:46;;;;;;;5.97;2.58;;;18.80;70.20;;;;;;4953058;28;20054;-77
2022/08/23 05:44:13;;;;;;;5.65;2.75;;;18.80;70.30;;;;;;4933341;28;20251;-77
2022/08/23 05:46:40;;;;;;;5.00;2.87;;;18.80;70.40;;;;;;4958220;28;20035;-77
2022/08/23 05:49:07;;;;;;;3.78;2.70;;;18.80;70.50;;;;;;4937975;28;20329;-79
2022/08/23 05:51:33;;;;;;;5.85;2.70;;;18.80;70.50;;;;;;4943539;28;20022;-78
2022/08/23 05:54:03;;;;;;;4.35;2.72;;;18.80;70.70;;;;;;4949172;28;20019;-79
2022/08/23 05:56:33;;;;;;;5.38;2.75;;;18.80;70.90;;;;;;4914048;28;20042;-79
2022/08/23 05:59:02;;;;;;;6.83;3.37;;;18.90;71.10;;;;;;4970522;28;20035;-79
2022/08/23 06:01:29;;;;;;;5.47;2.90;;;18.90;71.20;;;;;;4907017;28;20073;-79
2022/08/23 06:03:57;;;;;;;3.97;2.90;;;18.90;71.30;;;;;;4953838;28;20045;-79
2022/08/23 06:06:23;;;;;;;4.65;2.53;;;19.00;71.40;;;;;;4964428;28;20418;-79
2022/08/23 06:08:48;;;;;;;4.43;3.10;;;19.10;71.50;;;;;;4954707;28;20038;-79
2022/08/23 06:11:17;;;;;;;5.32;2.80;;;19.10;71.50;;;;;;4944193;28;20029;-79
2022/08/23 06:13:46;;;;;;;4.13;2.85;;;19.10;71.80;;;;;;4973679;28;20546;-79
2022/08/23 06:16:13;;;;;;;6.20;3.20;;;19.20;71.90;;;;;;4938941;28;20038;-79
2022/08/23 06:18:39;;;;;;;5.53;3.22;;;19.20;71.90;;;;;;4954506;28;20031;-78
2022/08/23 06:21:11;;;;;;;5.82;3.22;;;19.30;72.10;;;;;;4970991;28;20221;-79
2022/08/23 06:23:37;;;;;;;5.93;2.90;;;19.30;72.70;;;;;;4954307;28;20034;-79
2022/08/23 06:26:33;;;;;;;4.67;3.00;;;19.40;72.20;;;;;;4960574;28;20028;-79
2022/08/23 06:29:03;;;;;;;4.57;2.80;;;19.50;74.20;;;;;;4932211;28;20058;-78
2022/08/23 06:31:47;;;;;;;4.55;2.92;;;19.60;72.60;;;;;;4916072;28;20117;-78
2022/08/23 06:34:21;;;;;;;6.07;2.88;;;19.70;72.60;;;;;;4954671;28;20054;-79
2022/08/23 06:36:51;;;;;;;5.03;3.38;;;19.80;72.90;;;;;;4930894;28;20505;-78
2022/08/23 06:39:18;;;;;;;7.67;3.10;;;19.80;72.90;;;;;;4967183;28;20376;-78
2022/08/23 06:41:47;;;;;;;7.50;3.05;;;20.00;73.10;;;;;;4965969;28;20249;-78
2022/08/23 06:44:14;;;;;;;6.03;3.40;;;20.10;73.30;;;;;;4913912;28;20031;-79
2022/08/23 06:46:40;;;;;;;5.97;3.22;;;20.20;73.40;;;;;;4909309;28;20495;-79
2022/08/23 06:49:07;;;;;;;6.60;3.10;;;20.20;73.40;;;;;;4957848;28;20054;-79
2022/08/23 06:51:35;;;;;;;4.90;2.90;;;20.40;73.60;;;;;;4961695;28;20279;-79
2022/08/23 06:54:05;;;;;;;4.28;2.92;;;20.50;73.50;;;;;;4943325;28;20026;-79
2022/08/23 06:56:31;;;;;;;5.05;2.78;;;20.60;73.80;;;;;;4949530;28;20028;-79
2022/08/23 06:58:57;;;;;;;5.53;2.88;;;20.70;73.70;;;;;;4935913;28;20149;-79
2022/08/23 07:01:47;;;;;;;4.93;3.10;;;20.80;73.70;;;;;;4930041;28;20030;-79
2022/08/23 07:04:16;;;;;;;5.07;2.97;;;21.00;74.90;;;;;;4941322;28;20027;-79
2022/08/23 07:06:42;;;;;;;7.60;2.90;;;21.20;73.90;;;;;;4945153;28;20027;-79
2022/08/23 07:09:08;;;;;;;7.03;3.10;;;21.30;73.70;;;;;;4929492;28;20023;-79
2022/08/23 07:11:34;;;;;;;5.30;2.90;;;21.50;73.80;;;;;;4952450;28;20021;-79
2022/08/23 07:14:03;;;;;;;4.97;2.65;;;21.60;73.80;;;;;;4926647;28;20042;-79
2022/08/23 07:16:58;;;;;;;8.45;3.35;;;21.80;73.80;;;;;;4930133;28;20066;-78
2022/08/23 07:19:26;;;;;;;7.20;2.90;;;22.00;74.10;;;;;;4905743;28;20038;-76
2022/08/23 07:21:53;;;;;;;5.32;2.83;;;22.10;73.40;;;;;;4930588;28;20023;-79
2022/08/23 07:24:19;;;;;;;6.10;2.40;;;22.30;73.30;;;;;;4953966;28;20067;-79
2022/08/23 07:26:50;;;;;;;7.95;2.67;;;22.50;73.40;;;;;;4957198;28;20043;-76
2022/08/23 07:29:17;;;;;;;5.97;2.67;;;22.70;73.20;;;;;;4947512;28;20054;-76
2022/08/23 07:31:48;;;;;;;6.00;2.65;;;22.80;73.00;;;;;;4917124;28;20242;-76
2022/08/23 07:34:15;;;;;;;3.72;2.20;;;23.00;72.80;;;;;;4931117;28;20034;-77
2022/08/23 07:36:42;;;;;;;5.83;2.60;;;23.20;72.50;;;;;;4959126;28;20226;-76
2022/08/23 07:39:09;;;;;;;4.70;2.20;;;23.40;72.30;;;;;;4932968;28;20035;-76
2022/08/23 07:41:37;;;;;;;4.80;2.20;;;23.50;72.20;;;;;;4933900;28;20416;-76
2022/08/23 07:44:07;;;;;;;4.90;2.20;;;23.60;71.90;;;;;;4934852;28;20062;-76
2022/08/23 07:46:33;;;;;;;5.82;2.20;;;23.80;71.80;;;;;;4931969;28;20030;-77
2022/08/23 07:49:01;;;;;;;5.40;2.10;;;24.00;71.80;;;;;;4937271;28;20078;-77
2022/08/23 07:51:30;;;;;;;5.07;2.13;;;24.10;71.70;;;;;;4945906;28;20022;-77
2022/08/23 07:53:56;;;;;;;3.72;2.00;;;24.30;72.30;;;;;;4954870;28;20024;-77
2022/08/23 07:56:22;;;;;;;4.68;2.10;;;24.50;72.30;;;;;;4938641;28;20026;-76
2022/08/23 07:58:48;;;;;;;5.57;1.87;;;24.70;71.70;;;;;;4954026;28;20082;-76
2022/08/23 08:01:15;;;;;;;4.20;1.98;;;24.90;71.10;;;;;;4922159;28;20027;-76
2022/08/23 08:03:43;;;;;;;3.65;1.80;;;25.10;70.60;;;;;;4925506;28;24737;-77
2022/08/23 08:06:12;;;;;;;5.03;2.03;;;25.30;70.50;;;;;;4934848;28;20038;-76
2022/08/23 08:08:39;;;;;;;4.55;1.70;;;25.50;70.40;;;;;;4950414;28;20114;-76
2022/08/23 08:11:07;;;;;;;2.87;1.70;;;25.80;70.50;;;;;;4937297;28;20305;-77
2022/08/23 08:13:36;;;;;;;4.20;1.80;;;26.00;70.30;;;;;;4938899;28;20125;-77
2022/08/23 08:16:02;;;;;;;2.63;1.45;;;26.20;70.30;;;;;;4918395;28;20035;-77
2022/08/23 08:18:28;;;;;;;4.75;1.80;;;26.50;70.60;;;;;;4933451;28;20362;-77
2022/08/23 08:20:54;;;;;;;1.90;1.40;;;26.80;70.90;;;;;;4935957;28;20563;-77
2022/08/23 08:23:20;;;;;;;3.58;1.67;;;27.10;71.00;;;;;;4952469;28;20480;-77
2022/08/23 08:25:46;;;;;;;3.80;1.75;;;27.50;70.50;;;;;;4927847;28;20045;-77
2022/08/23 08:28:11;;;;;;;2.77;1.30;;;27.80;70.90;;;;;;4935767;28;20679;-77
2022/08/23 08:30:38;;;;;;;3.92;1.50;;;28.20;71.40;;;;;;4934350;28;20026;-77
2022/08/23 08:33:04;;;;;;;2.70;1.60;;;28.80;71.80;;;;;;4966926;28;20642;-77
2022/08/23 08:35:30;;;;;;;3.00;1.70;;;29.40;71.60;;;;;;4951555;28;20096;-77
2022/08/23 08:37:56;;;;;;;3.73;1.80;;;30.00;71.40;;;;;;4960814;28;20026;-77
2022/08/23 08:40:31;;;;;;;3.33;1.63;;;30.60;70.70;;;;;;4972657;28;20014;-77
2022/08/23 08:43:22;;;;;;;2.25;1.52;;;31.30;67.30;;;;;;4951776;28;20316;-76
2022/08/23 08:46:10;;;;;;;2.50;1.20;;;32.00;65.10;;;;;;4967739;28;20022;-77
2022/08/23 08:48:43;;;;;;;2.95;1.35;;;32.60;63.80;;;;;;4937473;28;20066;-77
2022/08/23 08:51:33;;;;;;;2.67;1.53;;;33.20;64.00;;;;;;4913671;28;20035;-77
2022/08/23 08:54:03;;;;;;;2.95;1.70;;;33.80;61.40;;;;;;4971105;28;20034;-76
2022/08/23 08:56:32;;;;;;;3.50;1.33;;;34.30;61.90;;;;;;4939988;28;20034;-76
2022/08/23 08:59:02;;;;;;;2.25;2.00;;;34.70;60.00;;;;;;4965937;28;20366;-76
2022/08/23 09:01:31;;;;;;;2.10;1.90;;;35.10;59.40;;;;;;4969850;28;20684;-78
2022/08/23 09:03:57;;;;;;;4.67;1.60;;;35.40;58.00;;;;;;4953004;28;20029;-78
2022/08/23 09:06:51;;;;;;;2.10;1.90;;;35.70;58.00;;;;;;4947112;28;20076;-77
2022/08/23 09:09:56;;;;;;;2.05;1.85;;;36.00;54.40;;;;;;4968318;28;20732;-78
2022/08/23 09:12:52;;;;;;;3.10;1.90;;;36.30;54.20;;;;;;4960682;28;20134;-76
2022/08/23 09:15:26;;;;;;;2.10;1.80;;;36.70;53.10;;;;;;4959777;28;20032;-78
2022/08/23 09:18:02;;;;;;;2.40;1.90;;;37.00;54.50;;;;;;4974992;28;20018;-76
2022/08/23 09:20:29;;;;;;;2.13;1.80;;;37.30;52.40;;;;;;4969315;28;20038;-77
2022/08/23 09:23:05;;;;;;;2.08;1.85;;;37.50;51.90;;;;;;4938867;28;20053;-77
2022/08/23 09:25:30;;;;;;;2.20;2.00;;;37.70;49.60;;;;;;4985639;28;20446;-78
2022/08/23 09:27:56;;;;;;;2.23;1.77;;;37.80;50.80;;;;;;4970521;28;20059;-78
2022/08/23 09:30:44;;;;;;;2.20;2.00;;;37.90;48.40;;;;;;4944328;28;20192;-77
2022/08/23 09:33:20;;;;;;;2.15;1.95;;;37.90;46.30;;;;;;4944876;28;20252;-77
2022/08/23 09:36:13;;;;;;;4.70;1.77;;;37.90;45.90;;;;;;4964320;28;20058;-78
2022/08/23 09:38:53;;;;;;;1.30;1.20;;;37.90;45.70;;;;;;4963289;28;20096;-77
2022/08/23 09:41:35;;;;;;;1.77;1.60;;;37.90;45.40;;;;;;4982002;28;20036;-78
2022/08/23 09:44:02;;;;;;;2.40;1.90;;;37.90;45.70;;;;;;4955138;28;20503;-77
2022/08/23 09:46:31;;;;;;;1.88;1.70;;;38.00;46.50;;;;;;4948036;28;20099;-77
2022/08/23 09:49:00;;;;;;;2.70;1.90;;;38.10;46.40;;;;;;4936867;28;20030;-78
2022/08/23 09:51:32;;;;;;;2.05;1.85;;;38.30;45.40;;;;;;4955291;28;20130;-77
2022/08/23 09:54:11;;;;;;;2.20;2.00;;;38.50;44.20;;;;;;4956913;28;20134;-77
2022/08/23 09:56:41;;;;;;;2.88;2.13;;;38.60;42.90;;;;;;4972970;28;20047;-76
2022/08/23 09:59:25;;;;;;;2.25;1.80;;;38.80;43.50;;;;;;4947654;28;20030;-77
2022/08/23 10:01:53;;;;;;;2.20;2.00;;;38.70;42.10;;;;;;4952325;28;20497;-77
2022/08/23 10:04:40;;;;;;;3.22;1.83;;;38.70;43.10;;;;;;4942104;28;20030;-77
2022/08/23 10:07:34;;;;;;;2.25;1.60;;;38.80;41.50;;;;;;4936319;28;20035;-76
2022/08/23 10:10:25;;;;;;;1.92;1.30;;;38.70;40.80;;;;;;4972862;28;20101;-77
2022/08/23 10:12:52;;;;;;;1.88;1.65;;;38.60;40.80;;;;;;4973242;28;20089;-76
2022/08/23 10:15:41;;;;;;;2.10;1.27;;;38.50;41.30;;;;;;4963203;28;20113;-79
2022/08/23 10:18:14;;;;;;;1.70;1.55;;;38.40;41.50;;;;;;4915635;28;20030;-77
2022/08/23 10:20:44;;;;;;;1.65;1.50;;;38.20;40.50;;;;;;4958750;28;20022;-76
2022/08/23 10:23:36;;;;;;;1.70;1.58;;;38.10;41.20;;;;;;4940209;28;20109;-77
2022/08/23 10:26:02;;;;;;;1.95;1.30;;;38.00;40.50;;;;;;4964474;28;20038;-77
2022/08/23 10:31:59;;;;;;;1.88;1.75;;;37.70;40.50;;;;;;4953685;28;20105;-77
2022/08/23 10:34:33;;;;;;;1.83;1.20;;;37.60;40.80;;;;;;4971107;28;20026;-76
2022/08/23 10:37:09;;;;;;;1.92;1.75;;;37.60;41.30;;;;;;4968853;28;20042;-77
2022/08/23 10:39:42;;;;;;;3.10;1.60;;;37.80;42.60;;;;;;4942541;28;20116;-76
2022/08/23 10:42:52;;;;;;;2.20;1.67;;;38.10;41.70;;;;;;4979496;28;20683;-76
2022/08/23 10:45:27;;;;;;;1.90;1.70;;;38.40;40.90;;;;;;4978604;28;20109;-77
2022/08/23 10:48:05;;;;;;;1.90;1.80;;;38.60;41.00;;;;;;4983193;28;20057;-77
2022/08/23 10:50:51;;;;;;;1.98;1.40;;;39.00;40.70;;;;;;4955075;28;24081;-76
2022/08/23 10:53:18;;;;;;;2.58;1.77;;;39.20;40.30;;;;;;4960928;28;20117;-76
2022/08/23 10:56:04;;;;;;;2.90;1.93;;;39.30;40.40;;;;;;4942467;28;20045;-77
2022/08/23 10:58:56;;;;;;;2.78;1.52;;;39.40;39.00;;;;;;4967926;28;20329;-78
2022/08/23 11:01:47;;;;;;;1.55;1.45;;;39.30;38.30;;;;;;4970613;28;20316;-77
2022/08/23 11:04:46;;;;;;;1.77;1.40;;;39.00;37.50;;;;;;4970271;28;20081;-77
2022/08/23 11:07:19;;;;;;;1.55;1.35;;;38.60;37.80;;;;;;4959195;28;20499;-76
2022/08/23 11:10:04;;;;;;;1.37;1.20;;;38.40;38.20;;;;;;4945598;28;20065;-77
2022/08/23 11:12:34;;;;;;;1.60;1.40;;;38.30;38.30;;;;;;4969837;28;20313;-76
2022/08/23 11:15:12;;;;;;;3.38;1.55;;;38.20;38.90;;;;;;4965888;28;20058;-76
2022/08/23 11:17:54;;;;;;;2.00;1.88;;;38.20;38.80;;;;;;4973079;28;20559;-76
2022/08/23 11:20:48;;;;;;;2.38;1.40;;;38.30;38.40;;;;;;4958028;28;20994;-77
2022/08/23 11:23:34;;;;;;;1.37;1.27;;;38.30;38.50;;;;;;4936068;28;20034;-77
2022/08/23 11:26:01;;;;;;;1.90;1.60;;;38.40;39.30;;;;;;4952120;28;20049;-76
2022/08/23 11:28:26;;;;;;;1.48;1.38;;;38.40;39.40;;;;;;4949303;28;20154;-76
2022/08/23 11:30:55;;;;;;;3.23;1.23;;;38.40;38.90;;;;;;4977719;28;20281;-76
2022/08/23 11:33:32;;;;;;;1.80;1.70;;;38.50;38.70;;;;;;4954346;28;20093;-76
2022/08/23 11:36:07;;;;;;;1.90;1.60;;;38.60;38.40;;;;;;4948604;28;20026;-76
2022/08/23 11:38:54;;;;;;;1.85;1.20;;;38.60;37.90;;;;;;4956445;28;20148;-77
2022/08/23 11:41:19;;;;;;;1.38;1.27;;;38.60;37.90;;;;;;4938913;28;21092;-77
2022/08/23 11:44:09;;;;;;;1.60;1.20;;;38.60;38.30;;;;;;4978982;28;20096;-76
2022/08/23 11:46:59;;;;;;;1.30;1.20;;;38.60;37.50;;;;;;4936106;28;20473;-77
2022/08/23 11:49:28;;;;;;;1.40;1.30;;;38.40;37.20;;;;;;4945345;28;20486;-76
2022/08/23 11:52:16;;;;;;;1.70;1.23;;;38.30;37.90;;;;;;4962871;28;20026;-76
2022/08/23 11:55:12;;;;;;;2.67;1.40;;;38.30;37.90;;;;;;4959465;28;21536;-76
2022/08/23 11:58:11;;;;;;;1.02;1.00;;;38.40;37.70;;;;;;4955272;28;20041;-76
2022/08/23 12:01:05;;;;;;;1.38;1.27;;;38.40;37.90;;;;;;4951428;28;20027;-77
2022/08/23 12:03:52;;;;;;;2.65;1.35;;;38.50;38.00;;;;;;4970147;28;20559;-76
2022/08/23 12:06:38;;;;;;;0.90;0.90;;;38.50;38.10;;;;;;4951645;28;20039;-76
2022/08/23 12:09:32;;;;;;;1.23;1.13;;;38.50;37.70;;;;;;4951997;28;20093;-76
2022/08/23 12:11:59;;;;;;;1.38;1.27;;;38.60;38.00;;;;;;4951236;28;20793;-76
2022/08/23 12:14:31;;;;;;;1.38;1.25;;;38.80;39.50;;;;;;4967683;28;20038;-76
2022/08/23 12:17:25;;;;;;;1.60;1.50;;;39.10;38.30;;;;;;4967624;28;20034;-76
2022/08/23 12:19:56;;;;;;;1.73;1.63;;;39.30;38.50;;;;;;4972278;28;20133;-76
2022/08/23 12:22:25;;;;;;;1.80;1.50;;;39.70;38.60;;;;;;4960880;28;20136;-76
2022/08/23 12:24:54;;;;;;;1.30;1.20;;;40.00;37.90;;;;;;4953545;28;20683;-76
2022/08/23 12:27:39;;;;;;;1.60;1.20;;;40.10;37.30;;;;;;4952072;28;20540;-76
2022/08/23 12:30:17;;;;;;;1.48;1.38;;;40.00;36.20;;;;;;4966208;28;20105;-76
2022/08/23 12:32:57;;;;;;;1.27;1.20;;;39.90;36.10;;;;;;4954960;28;20034;-76
2022/08/23 12:35:52;;;;;;;1.38;1.30;;;39.80;35.20;;;;;;4953530;28;20109;-76
2022/08/23 12:38:45;;;;;;;1.30;1.20;;;39.60;35.00;;;;;;4952676;28;20030;-76
2022/08/23 12:41:28;;;;;;;1.30;1.20;;;39.40;35.20;;;;;;4940064;28;20459;-76
2022/08/23 12:43:55;;;;;;;1.17;1.10;;;39.30;36.10;;;;;;4957974;28;20116;-76
2022/08/23 12:46:30;;;;;;;1.40;1.30;;;39.40;36.70;;;;;;4954763;28;20406;-76
2022/08/23 12:48:55;;;;;;;1.52;1.42;;;39.40;35.50;;;;;;4957495;28;20315;-76
2022/08/23 12:51:21;;;;;;;1.25;1.17;;;39.30;35.70;;;;;;4970938;28;20112;-76
2022/08/23 12:53:47;;;;;;;0.93;0.93;;;39.40;36.50;;;;;;4952279;28;20289;-76
2022/08/23 12:56:21;;;;;;;1.70;1.60;;;39.50;36.40;;;;;;4944368;28;20034;-76
2022/08/23 12:58:54;;;;;;;1.70;1.08;;;39.50;35.00;;;;;;4912246;28;20023;-76
2022/08/23 13:01:30;;;;;;;1.58;1.48;;;39.50;35.20;;;;;;4973492;28;20256;-76
2022/08/23 13:04:15;;;;;;;1.45;1.27;;;39.50;35.90;;;;;;4957029;28;20045;-75
2022/08/23 13:06:54;;;;;;;1.45;1.35;;;39.50;35.00;;;;;;4958816;28;20699;-76
2022/08/23 13:09:28;;;;;;;1.40;1.30;;;39.50;34.60;;;;;;4943473;28;20437;-77
2022/08/23 13:11:56;;;;;;;0.93;0.93;;;39.40;34.70;;;;;;4943031;28;21258;-76
2022/08/23 13:14:32;;;;;;;1.23;1.13;;;39.50;35.50;;;;;;4937047;28;20551;-76
2022/08/23 13:17:18;;;;;;;1.58;1.23;;;39.60;35.70;;;;;;4944925;28;20387;-76
2022/08/23 13:19:46;;;;;;;1.38;1.30;;;39.80;34.80;;;;;;4951445;28;20031;-76
2022/08/23 13:22:18;;;;;;;1.20;1.10;;;39.90;35.10;;;;;;4965423;28;20213;-76
2022/08/23 13:25:05;;;;;;;1.08;0.90;;;39.90;34.90;;;;;;4966654;28;20031;-77
2022/08/23 13:27:42;;;;;;;1.35;1.27;;;39.90;34.50;;;;;;4960448;28;20180;-76